• Join FlightAware (Why Join?)
  • Login
  • US Flag 
02:01AM EST


 

Airport Tracker/Info


-or-


 

Live Flight TrackerFlight Track Log ✈ SWA559 ✈ 10-Apr-2013 ✈ KLAS - KPIT

Flight Track Log - Related Links

Times and Time Zones

All times are in EDT time to prevent confusion due to time zone crossing. See the SWA559 flight status page for this flight to view local times or setup timezone preferences in your user account.

Time Position Orientation Groundspeed Altitude Reporting Facility
EDT Latitude Longitude Course Direction KTS MPH feet Rate Location/Type
09:56PM 36.0761 -115.1789 260° West 187 215 3,200  Level Los Angeles Center
09:57PM 36.0669 -115.2456 260° West 235 270 4,700 2,220 Climbing Los Angeles Center
09:58PM 36.0008 -115.2886 208° Southwest 284 327 7,500 2,580 Climbing Los Angeles Center
09:59PM 35.9233 -115.2831 177° South 301 346 10,200 2,400 Climbing Los Angeles Center
10:00PM 35.8472 -115.1819 133° Southeast 353 406 12,700 2,460 Climbing Los Angeles Center
10:01PM 35.8225 -115.0597 104° East 367 422 15,300 2,160 Climbing Los Angeles Center
10:03PM 35.8467 -114.7908 84° East 400 460 19,500 2,040 Climbing Los Angeles Center
10:04PM 35.8594 -114.6467 84° East 417 480 21,600 1,800 Climbing Los Angeles Center
10:05PM 35.8725 -114.4983 84° East 431 496 23,300 1,560 Climbing Los Angeles Center
10:06PM 35.8869 -114.3439 83° East 447 514 24,900 1,800 Climbing Los Angeles Center
10:07PM 35.9022 -114.1528 84° East 463 533 27,000 1,740 Climbing Los Angeles Center
10:08PM 35.9156 -113.9950 84° East 464 534 28,500 1,500 Climbing Los Angeles Center
10:09PM 35.9114 -113.8342 92° East 471 542 30,100 1,500 Climbing Los Angeles Center
10:10PM 35.8767 -113.6736 105° East 483 556 31,600 1,320 Climbing Los Angeles Center
10:11PM 35.8456 -113.5222 104° East 480 552 32,900 660 Climbing Los Angeles Center
10:12PM 35.8128 -113.3633 104° East 480 552 33,000  Climbing Los Angeles Center
10:13PM 35.7725 -113.1706 104° East 483 556 33,000  Level Los Angeles Center
10:14PM 35.7389 -113.0094 104° East 485 558 33,000  Level Los Angeles Center
10:15PM 35.7044 -112.8472 105° East 486 559 33,000  Level Los Angeles Center
10:16PM 35.6722 -112.6958 105° East 482 555 33,000  Level Los Angeles Center
10:17PM 35.6353 -112.5247 105° East 489 563 33,000  Level Los Angeles Center
10:18PM 35.5994 -112.3661 105° East 484 557 33,000  Level Los Angeles Center
10:19PM 35.5583 -112.2417 112° Southeast 489 563 33,000  Level Albuquerque Center
10:20PM 35.5031 -112.0853 113° Southeast 496 571 33,000  Level Albuquerque Center
10:21PM 35.4506 -111.9297 112° Southeast 496 571 33,000  Level Albuquerque Center
10:22PM 35.3983 -111.7756 113° Southeast 493 567 33,000  Level Albuquerque Center
10:23PM 35.3469 -111.6219 112° Southeast 490 564 33,000  Level Albuquerque Center
10:24PM 35.2928 -111.4661 113° Southeast 487 560 33,000  Level Albuquerque Center
10:25PM 35.2297 -111.2808 113° Southeast 489 563 33,000  Level Albuquerque Center
10:26PM 35.1761 -111.1283 113° Southeast 488 562 33,000  Level Albuquerque Center
10:27PM 35.1225 -110.9719 113° Southeast 493 567 33,000  Level Albuquerque Center
10:28PM 35.0708 -110.8256 113° Southeast 492 566 33,000  Level Albuquerque Center
10:29PM 35.0106 -110.6561 113° Southeast 489 563 33,000  Level Albuquerque Center
10:30PM 34.9600 -110.5119 113° Southeast 486 559 33,000  Level Albuquerque Center
10:31PM 34.8981 -110.3472 115° Southeast 483 556 33,000  Level Albuquerque Center
10:33PM 34.8131 -110.2253 130° Southeast 494 568 33,000  Level Albuquerque Center
10:34PM 34.7236 -110.1022 131° Southeast 501 577 33,000  Level Albuquerque Center
10:35PM 34.6178 -109.9536 131° Southeast 513 590 33,000 480 Level Albuquerque Center
10:36PM 34.5300 -109.8331 131° Southeast 505 581 34,000 1,080 Climbing Albuquerque Center
10:37PM 34.4261 -109.6919 132° Southeast 504 580 35,200 1,020 Climbing Albuquerque Center
10:38PM 34.3383 -109.5697 131° Southeast 504 580 36,100 780 Climbing Albuquerque Center
10:39PM 34.2497 -109.4492 132° Southeast 503 579 36,900 420 Climbing Albuquerque Center
10:40PM 34.1569 -109.3225 131° Southeast 502 578 37,000  Climbing Albuquerque Center
10:41PM 34.0650 -109.1969 131° Southeast 503 579 37,000  Level Albuquerque Center
10:42PM 33.9717 -109.0725 132° Southeast 503 579 37,000  Level Albuquerque Center
10:43PM 33.8594 -108.9242 132° Southeast 502 578 37,000  Level Albuquerque Center
10:44PM 33.7664 -108.8000 132° Southeast 502 578 37,000  Level Albuquerque Center
10:45PM 33.6719 -108.6717 131° Southeast 508 585 37,000  Level Albuquerque Center
10:46PM 33.5772 -108.5472 132° Southeast 507 583 37,000  Level Albuquerque Center
10:47PM 33.4825 -108.4208 132° Southeast 510 587 37,000  Level Albuquerque Center
10:48PM 33.3864 -108.2956 133° Southeast 511 588 37,000  Level Albuquerque Center
10:49PM 33.2906 -108.1711 133° Southeast 510 587 37,000  Level Albuquerque Center
10:50PM 33.1789 -108.0250 132° Southeast 508 585 37,000  Level Albuquerque Center
10:51PM 33.0850 -107.9014 132° Southeast 504 580 37,000  Level Albuquerque Center
10:52PM 32.9903 -107.7789 133° Southeast 503 579 37,000  Level Albuquerque Center
10:53PM 32.8961 -107.6581 133° Southeast 501 577 37,000  Level Albuquerque Center
10:54PM 32.8033 -107.5381 133° Southeast 497 572 37,000  Level Albuquerque Center
10:55PM 32.7069 -107.4131 132° Southeast 495 570 37,000  Level Albuquerque Center
10:56PM 32.6192 -107.2983 132° Southeast 495 570 37,000  Level Albuquerque Center
10:57PM 32.5236 -107.1733 132° Southeast 490 564 37,000  Level Albuquerque Center
10:58PM 32.4211 -107.0453 133° Southeast 488 562 37,000  Level Albuquerque Center
10:59PM 32.3222 -106.9161 132° Southeast 492 566 37,000  Level Albuquerque Center
11:00PM 32.2400 -106.8128 133° Southeast 492 566 37,000  Level Albuquerque Center
11:01PM 32.1456 -106.6942 133° Southeast 496 571 37,000  Level Albuquerque Center
11:02PM 32.0517 -106.5758 133° Southeast 494 568 37,000  Level Albuquerque Center
11:03PM 32.0006 -106.3994 109° East 479 551 37,000  Level Albuquerque Center
11:04PM 31.9739 -106.2467 102° East 478 550 37,000  Level Albuquerque Center
11:05PM 31.9478 -106.0933 101° East 479 551 37,000  Level Albuquerque Center
11:07PM 31.8969 -105.7900 101° East 486 559 37,000  Level Albuquerque Center
11:08PM 31.8694 -105.6344 102° East 486 559 37,000  Level Albuquerque Center
11:09PM 31.8442 -105.4781 101° East 487 560 37,000  Level Albuquerque Center
11:10PM 31.8111 -105.2892 102° East 489 563 37,000  Level Albuquerque Center
11:11PM 31.7850 -105.1328 101° East 488 562 37,000  Level Albuquerque Center
11:12PM 31.7569 -104.9739 102° East 488 562 37,000  Level Albuquerque Center
11:13PM 31.7306 -104.8192 101° East 488 562 37,000  Level Albuquerque Center
11:14PM 31.7028 -104.6631 102° East 488 562 37,000  Level Albuquerque Center
11:15PM 31.6753 -104.5081 102° East 487 560 37,000  Level Albuquerque Center
11:17PM 31.6467 -104.3544 102° East 484 557 37,000  Level Albuquerque Center
11:18PM 31.6197 -104.1992 101° East 484 557 37,000  Level Albuquerque Center
11:19PM 31.5914 -104.0439 102° East 485 558 37,000  Level Albuquerque Center
11:20PM 31.5628 -103.8892 102° East 485 558 37,000  Level Albuquerque Center
11:21PM 31.5303 -103.7075 102° East 483 556 37,000  Level Albuquerque Center
11:22PM 31.5003 -103.5519 103° East 487 560 37,000 -60 Level Albuquerque Center
11:23PM 31.4706 -103.3981 103° East 488 562 36,900  Descending Albuquerque Center
11:24PM 31.4417 -103.2417 102° East 490 564 37,000  Climbing Albuquerque Center
11:25PM 31.4114 -103.0861 103° East 491 565 37,000  Level Albuquerque Center
11:26PM 31.3811 -102.9289 103° East 493 567 37,000  Level Albuquerque Center
11:27PM 31.3503 -102.7717 103° East 498 573 37,000  Level Albuquerque Center
11:28PM 31.3142 -102.5850 103° East 493 567 37,000  Level Albuquerque Center
11:29PM 31.2878 -102.4511 103° East 495 570 37,000  Level Albuquerque Center
11:30PM 31.2578 -102.2964 103° East 492 566 37,000  Level Albuquerque Center
11:31PM 31.2214 -102.1161 103° East 481 554 37,000  Level Albuquerque Center
11:32PM 31.1906 -101.9650 103° East 481 554 37,000  Level Albuquerque Center
11:33PM 31.1589 -101.8008 103° East 487 560 37,000  Level Albuquerque Center
11:34PM 31.1269 -101.6456 103° East 491 565 37,000  Level Albuquerque Center
11:36PM 31.0617 -101.3342 104° East 493 567 37,000  Level Houston Center
11:37PM 31.0306 -101.1781 103° East 494 568 37,000  Level Houston Center
11:38PM 30.9983 -101.0186 103° East 505 581 37,000  Level Houston Center
11:39PM 30.9647 -100.8600 104° East 502 578 37,000  Level Houston Center
11:40PM 30.9314 -100.7017 104° East 502 578 37,000  Level Houston Center
11:41PM 30.8981 -100.5417 104° East 507 583 37,000  Level Houston Center
11:42PM 30.8639 -100.3797 104° East 510 587 37,000  Level Houston Center
11:43PM 30.8286 -100.2200 104° East 507 583 37,000  Level Houston Center
11:44PM 30.7942 -100.0589 104° East 510 587 37,000  Level Houston Center
11:45PM 30.7586 -99.8975 104° East 512 589 37,000  Level Houston Center
11:46PM 30.7161 -99.7031 104° East 516 594 37,000  Level Houston Center
11:47PM 30.6806 -99.5439 105° East 510 587 37,000  Level Houston Center
11:48PM 30.6456 -99.3892 105° East 498 573 37,000  Level Houston Center
11:49PM 30.6119 -99.2339 104° East 494 568 37,000  Level Houston Center
11:50PM 30.5792 -99.0925 105° East 493 567 37,000  Level Houston Center
11:51PM 30.5450 -98.9375 104° East 493 567 37,000  Level Houston Center
11:52PM 30.5083 -98.7811 105° East 497 572 37,000  Level Houston Center
11:53PM 30.4725 -98.6256 105° East 498 573 37,000  Level Houston Center
11:54PM 30.4381 -98.4711 104° East 492 566 37,000  Level Houston Center
11:55PM 30.3961 -98.2917 105° East 492 566 37,000  Level Houston Center
11:56PM 30.3608 -98.1378 105° East 492 566 37,000  Level Houston Center
11:57PM 30.3258 -97.9900 105° East 490 564 37,000  Level Houston Center
11:58PM 30.2881 -97.8297 105° East 496 571 37,000  Level Houston Center
11:59PM 30.2500 -97.6703 105° East 509 586 37,000  Level Houston Center
12:00AM 30.2114 -97.5086 105° East 518 596 37,000  Level Houston Center
12:01AM 30.1728 -97.3494 106° East 514 592 37,000  Level Houston Center
12:02AM 30.1350 -97.1897 105° East 514 592 37,000  Level Houston Center
12:03AM 30.0944 -97.0233 106° East 512 589 37,000  Level Houston Center
12:04AM 30.0558 -96.8650 106° East 510 587 37,000  Level Houston Center
12:05AM 30.0172 -96.7075 106° East 507 583 37,000  Level Houston Center
12:06AM 29.9781 -96.5506 106° East 507 583 37,000  Level Houston Center
12:07AM 29.9403 -96.3931 105° East 507 583 37,000  Level Houston Center
12:08AM 29.9381 -96.2192 91° East 540 621 37,000  Level Houston Center
12:09AM 29.9475 -96.0431 86° East 550 633 37,000  Level Houston Center
12:10AM 29.9542 -95.8908 87° East 550 633 37,000  Level Houston Center
12:12AM 29.9633 -95.6800 87° East 547 629 37,000  Level Houston Center
12:13AM 29.9728 -95.5031 86° East 550 633 37,000  Level Houston Center
12:14AM 29.9797 -95.3258 87° East 549 632 37,000  Level Houston Center
12:15AM 29.9878 -95.1486 87° East 549 632 37,000  Level Houston Center
12:16AM 29.9950 -94.9700 87° East 551 634 37,000  Level Houston Center
12:17AM 30.0019 -94.7922 87° East 552 635 37,000  Level Houston Center
12:18AM 30.0083 -94.6169 88° East 548 631 37,000  Level Houston Center
12:19AM 30.0144 -94.4436 88° East 547 629 37,000  Level Houston Center
12:20AM 30.0194 -94.2714 88° East 544 626 37,000  Level Houston Center
12:21AM 30.0244 -94.0975 88° East 543 625 37,000  Level Houston Center
12:22AM 30.0344 -93.9242 86° East 543 625 37,000  Level Houston Center
12:23AM 30.1161 -93.7756 58° Northeast 539 620 37,000  Level Houston Center
12:24AM 30.2094 -93.6353 52° Northeast 551 634 37,000  Level Houston Center
12:25AM 30.3131 -93.4736 53° Northeast 546 628 37,000  Level Houston Center
12:26AM 30.4075 -93.3339 52° Northeast 557 641 37,000  Level Houston Center
12:27AM 30.4994 -93.1936 53° Northeast 558 642 37,000  Level Houston Center
12:28AM 30.5914 -93.0533 53° Northeast 550 633 37,000  Level Houston Center
12:29AM 30.6822 -92.9136 53° Northeast 546 628 37,000  Level Houston Center
12:30AM 30.7744 -92.7700 53° Northeast 550 633 37,000  Level Houston Center
12:31AM 30.8636 -92.6311 53° Northeast 542 624 37,000  Level Houston Center
12:32AM 30.9547 -92.4897 53° Northeast 548 631 37,000  Level Houston Center
12:33AM 31.0469 -92.3478 53° Northeast 552 635 37,000  Level Houston Center
12:34AM 31.1378 -92.2058 53° Northeast 548 631 37,000  Level Houston Center
12:35AM 31.2286 -92.0656 53° Northeast 543 625 37,000  Level Houston Center
12:36AM 31.3139 -91.9300 54° Northeast 542 624 37,000  Level Houston Center
12:37AM 31.4022 -91.7928 53° Northeast 534 615 37,000  Level Houston Center
12:38AM 31.5075 -91.6269 53° Northeast 529 609 37,000  Level Houston Center
12:39AM 31.5919 -91.4911 54° Northeast 519 597 37,000  Level Houston Center
12:40AM 31.6775 -91.3544 54° Northeast 519 597 37,000  Level Houston Center
12:41AM 31.7642 -91.2161 54° Northeast 525 604 37,000  Level Houston Center
12:42AM 31.8494 -91.0792 54° Northeast 521 600 37,000  Level Houston Center
12:43AM 31.9347 -90.9419 54° Northeast 519 597 37,000  Level Houston Center
12:44AM 32.0386 -90.8275 43° Northeast 513 590 37,000  Level Houston Center
12:45AM 32.1317 -90.7264 43° Northeast 509 586 37,000  Level Houston Center
12:46AM 32.2347 -90.6161 42° Northeast 503 579 37,000  Level Houston Center
12:47AM 32.3419 -90.4950 44° Northeast 504 580 37,000  Level Memphis Center
12:48AM 32.4444 -90.3844 42° Northeast 499 574 37,000  Level Memphis Center
12:49AM 32.5467 -90.2711 43° Northeast 499 574 37,000  Level Memphis Center
12:50AM 32.6467 -90.1600 43° Northeast 499 574 37,000  Level Memphis Center
12:51AM 32.7467 -90.0511 42° Northeast 499 574 37,000  Level Memphis Center
12:52AM 32.8508 -89.9369 43° Northeast 499 574 37,000  Level Memphis Center
12:53AM 32.9631 -89.8100 43° Northeast 499 574 37,000  Level Memphis Center
12:54AM 33.0667 -89.6978 42° Northeast 509 586 37,000  Level Memphis Center
12:55AM 33.1642 -89.5881 43° Northeast 497 572 37,000 -120 Level Memphis Center
12:56AM 33.2636 -89.4753 43° Northeast 497 572 36,800 -600 Descending Memphis Center
12:57AM 33.3631 -89.3647 43° Northeast 491 565 35,800 -960 Descending Memphis Center
12:58AM 33.4539 -89.2617 43° Northeast 490 564 34,900 -900 Descending Memphis Center
12:59AM 33.5511 -89.1508 44° Northeast 490 564 34,000 -960 Descending Memphis Center
01:00AM 33.6503 -89.0422 42° Northeast 485 558 33,000 -960 Descending Memphis Center
01:01AM 33.7511 -88.9256 44° Northeast 490 564 32,100 -900 Descending Memphis Center
01:02AM 33.8478 -88.8114 44° Northeast 495 570 31,200 -600 Descending Memphis Center
01:03AM 33.9486 -88.6969 43° Northeast 489 563 31,000 -120 Descending Memphis Center
01:04AM 34.0453 -88.5822 45° Northeast 489 563 31,000  Level Memphis Center
01:05AM 34.1458 -88.4697 43° Northeast 489 563 31,000  Level Memphis Center
01:06AM 34.2442 -88.3547 44° Northeast 489 563 31,000  Level Memphis Center
01:07AM 34.3425 -88.2392 44° Northeast 489 563 31,000  Level Memphis Center
01:08AM 34.4444 -88.1106 46° Northeast 503 579 31,000  Level Memphis Center
01:09AM 34.5425 -87.9997 43° Northeast 497 572 31,000  Level Memphis Center
01:10AM 34.6425 -87.8808 44° Northeast 497 572 31,000  Level Memphis Center
01:11AM 34.7483 -87.7539 45° Northeast 497 572 31,000  Level Memphis Center
01:12AM 34.8500 -87.6342 44° Northeast 497 572 31,000  Level Memphis Center
01:13AM 34.9433 -87.5147 46° Northeast 488 562 31,000  Level Memphis Center
01:14AM 35.0347 -87.4103 43° Northeast 488 562 31,000  Level Memphis Center
01:15AM 35.1383 -87.2947 42° Northeast 493 567 31,000  Level Memphis Center
01:16AM 35.2375 -87.1742 45° Northeast 498 573 31,000  Level Memphis Center
01:17AM 35.3325 -87.0561 45° Northeast 488 562 31,000  Level Memphis Center
01:18AM 35.4314 -86.9350 45° Northeast 494 568 31,000  Level Memphis Center
01:19AM 35.5303 -86.8136 45° Northeast 500 575 31,000  Level Memphis Center
01:20AM 35.6289 -86.6944 44° Northeast 495 570 31,000  Level Memphis Center
01:21AM 35.7275 -86.5722 45° Northeast 495 570 31,000  Level Memphis Center
01:22AM 35.8281 -86.4475 45° Northeast 500 575 31,000  Level Memphis Center
01:23AM 35.9283 -86.3272 44° Northeast 500 575 31,000  Level Memphis Center
01:24AM 36.0364 -86.1936 45° Northeast 500 575 31,000  Level Memphis Center
01:25AM 36.1344 -86.0731 45° Northeast 500 575 31,000  Level Memphis Center
01:26AM 36.2322 -85.9469 46° Northeast 500 575 31,000 -480 Level Memphis Center
01:27AM 36.3303 -85.8283 44° Northeast 495 570 30,100 -660 Descending Memphis Center
01:29AM 36.5344 -85.5686 46° Northeast 488 562 29,000 -360 Descending Indianapolis Center
01:30AM 36.6314 -85.4467 45° Northeast 491 565 29,000  Level Indianapolis Center
01:31AM 36.7272 -85.3244 46° Northeast 491 565 29,000  Level Indianapolis Center
01:32AM 36.8242 -85.2019 45° Northeast 495 570 29,000  Level Indianapolis Center
01:33AM 36.9178 -85.0794 46° Northeast 487 560 29,000  Level Indianapolis Center
01:34AM 37.0147 -84.9556 46° Northeast 494 568 29,000  Level Indianapolis Center
01:35AM 37.1100 -84.8308 46° Northeast 495 570 29,000  Level Indianapolis Center
01:36AM 37.2058 -84.7072 46° Northeast 494 568 29,000  Level Indianapolis Center
01:37AM 37.3008 -84.5833 46° Northeast 492 566 29,000  Level Indianapolis Center
01:38AM 37.3978 -84.4556 46° Northeast 500 575 29,000  Level Indianapolis Center
01:39AM 37.4939 -84.3294 46° Northeast 499 574 29,000  Level Indianapolis Center
01:40AM 37.5900 -84.2019 46° Northeast 501 577 29,000  Level Indianapolis Center
01:41AM 37.6864 -84.0767 46° Northeast 493 567 29,000  Level Indianapolis Center
01:42AM 37.7814 -83.9489 47° Northeast 496 571 29,000  Level Indianapolis Center
01:43AM 37.8781 -83.8206 46° Northeast 500 575 29,000  Level Indianapolis Center
01:44AM 37.9747 -83.6911 47° Northeast 502 578 29,000  Level Indianapolis Center
01:45AM 38.0694 -83.5617 47° Northeast 500 575 29,000  Level Indianapolis Center
01:46AM 38.1642 -83.4339 47° Northeast 495 570 29,000  Level Indianapolis Center
01:47AM 38.2583 -83.3061 47° Northeast 494 568 29,000  Level Indianapolis Center
01:48AM 38.3533 -83.1767 47° Northeast 497 572 29,000  Level Indianapolis Center
01:49AM 38.4481 -83.0461 47° Northeast 500 575 29,000  Level Indianapolis Center
01:50AM 38.5428 -82.9164 47° Northeast 497 572 29,000  Level Indianapolis Center
01:51AM 38.6364 -82.7886 47° Northeast 492 566 29,000  Level Indianapolis Center
01:52AM 38.7236 -82.6653 48° Northeast 488 562 29,000  Level Indianapolis Center
01:53AM 38.8167 -82.5372 47° Northeast 488 562 29,000 -480 Level Indianapolis Center
01:54AM 38.9083 -82.4086 47° Northeast 486 559 28,100 -960 Descending Indianapolis Center
01:55AM 39.0025 -82.2767 47° Northeast 497 572 27,100 -1,020 Descending Indianapolis Center
01:56AM 39.0958 -82.1464 47° Northeast 495 570 26,100 -1,020 Descending Indianapolis Center
01:57AM 39.1869 -82.0156 48° Northeast 489 563 25,100 -1,080 Descending Indianapolis Center
01:58AM 39.2800 -81.8858 47° Northeast 490 564 24,000 -1,080 Descending Indianapolis Center
01:59AM 39.3706 -81.7558 48° Northeast 485 558 23,000 -1,020 Descending Indianapolis Center
02:00AM 39.4614 -81.6264 48° Northeast 483 556 22,000 -1,020 Descending Indianapolis Center
02:01AM 39.5506 -81.4997 48° Northeast 477 549 21,000 -1,020 Descending Indianapolis Center
02:02AM 39.6364 -81.3728 49° Northeast 468 539 20,000 -1,080 Descending Indianapolis Center
02:03AM 39.6814 -81.3114 46° Northeast 481 554 19,500 -780 Descending Cleveland Center
02:04AM 39.7694 -81.1853 48° Northeast 476 548 18,900 -840 Descending Cleveland Center
02:05AM 39.8556 -81.0644 47° Northeast 464 534 17,900 -1,500 Descending Cleveland Center
02:06AM 39.9414 -80.9458 47° Northeast 459 528 16,000 -2,340 Descending Cleveland Center
02:07AM 40.0231 -80.8297 47° Northeast 445 512 13,300 -2,700 Descending Cleveland Center
02:08AM 40.1025 -80.7161 48° Northeast 434 499 10,700 -1,680 Descending Cleveland Center
02:09AM 40.1736 -80.5994 51° Northeast 424 488 10,000 -420 Descending Cleveland Center
02:10AM 40.2214 -80.5150 53° Northeast 396 456 9,900 -840 Descending Cleveland Center
02:11AM 40.2839 -80.4089 52° Northeast 354 407 8,400 -1,620 Descending Cleveland Center
02:12AM 40.3400 -80.3244 49° Northeast 323 372 6,700 -1,500 Descending Cleveland Center
02:13AM 40.3856 -80.2342 56° Northeast 303 349 5,500 -1,140 Descending Cleveland Center
02:14AM 40.3914 -80.1278 86° East 262 302 4,500 -1,080 Descending Cleveland Center
02:15AM 40.4331 -80.1031 24° Northeast 198 228 3,400 -780 Descending Cleveland Center
02:16AM 40.4767 -80.0944 North 156 180 3,000 -540 Descending Cleveland Center
02:17AM 40.4875 -80.1381 288° West 97 112 2,400 -600 Descending Cleveland Center
02:19AM 40.4833 -80.2167 57° Northeast  Level FlightAware Approximate
02:26AM 40.4915 -80.2329 57° Northeast  Level Estimated